KESN/ESN METAR and TAF weather

Enter ICAO airport designator
Station Type Date Time Source
KESN METAR 2024/04/15 09:45 UTC NOAA

KESN 150945Z 17006KT 10SM CLR 15/10 A2979


Station Type Date Time Source
KESN Decoded METAR 2024/04/15 09:45 UTC NOAA

Easton / Newman Field, MD, United States (KESN) 38-48N 076-04W
Apr 15, 2024 - 05:45 AM EDT / 2024.04.15 0945 UTC
Wind: from the S (170 degrees) at 7 MPH (6 KT):0
Visibility: 10 mile(s):0
Sky conditions: clear
Temperature: 59 F (15 C)
Dew Point: 50 F (10 C)
Relative Humidity: 72%
Pressure (altimeter): 29.79 in. Hg (1008 hPa)
ob: KESN 150945Z 17006KT 10SM CLR 15/10 A2979
cycle: 10

Station Type Date Time Source
KESN TAF UTC NOAA

Error!

Example: see airport list